Time;durP1;ratioP1;P1;durP2;ratioP2;P2;SDS_P1;SDS_P2;PMS_P1;PMS_P2;Temp;Humidity;BMP_temperature;BMP_pressure;BME280_temperature;BME280_humidity;BME280_pressure;Samples;Min_cycle;Max_cycle;Signal;HPM_P1;HPM_P2
2023/04/06 00:01:27;;;;;;;8.13;5.93;;;4.90;60.50;;;;;;5047732;28;20209;-87
2023/04/06 00:03:53;;;;;;;5.90;5.30;;;4.90;62.80;;;;;;5040801;28;20267;-86
2023/04/06 00:06:18;;;;;;;5.87;5.27;;;5.00;61.20;;;;;;5030118;28;20174;-88
2023/04/06 00:08:44;;;;;;;5.63;5.13;;;4.90;62.20;;;;;;5033355;28;20223;-88
2023/04/06 00:11:10;;;;;;;7.00;5.20;;;4.90;62.00;;;;;;5039518;28;20255;-87
2023/04/06 00:13:36;;;;;;;6.27;5.50;;;4.90;62.00;;;;;;5039963;28;20168;-88
2023/04/06 00:16:01;;;;;;;5.00;4.57;;;4.90;61.80;;;;;;5040287;28;20180;-87
2023/04/06 00:18:27;;;;;;;4.90;4.50;;;4.90;61.50;;;;;;5039490;28;20690;-87
2023/04/06 00:20:53;;;;;;;4.80;4.40;;;4.80;62.50;;;;;;5040864;28;20208;-87
2023/04/06 00:23:18;;;;;;;5.50;4.77;;;4.70;63.40;;;;;;5027715;28;20177;-87
2023/04/06 00:25:44;;;;;;;6.10;5.50;;;4.70;62.90;;;;;;5037218;28;20184;-85
2023/04/06 00:28:10;;;;;;;5.13;4.63;;;4.80;62.30;;;;;;5039548;28;20197;-88
2023/04/06 00:30:35;;;;;;;5.73;4.97;;;4.70;63.20;;;;;;5039849;28;20392;-87
2023/04/06 00:33:01;;;;;;;6.57;5.30;;;4.80;63.20;;;;;;5037426;28;20185;-87
2023/04/06 00:35:27;;;;;;;5.90;5.30;;;4.80;63.20;;;;;;5032375;28;20621;-87
2023/04/06 00:37:52;;;;;;;5.67;5.00;;;4.70;62.90;;;;;;5017849;28;20671;-86
2023/04/06 00:40:18;;;;;;;5.73;5.13;;;4.80;62.80;;;;;;5019685;28;20221;-87
2023/04/06 00:42:44;;;;;;;5.63;5.13;;;4.70;63.30;;;;;;5018832;28;20184;-88
2023/04/06 00:45:10;;;;;;;7.73;5.60;;;4.40;64.90;;;;;;5017450;28;20169;-85
2023/04/06 00:47:36;;;;;;;6.43;5.53;;;4.40;64.40;;;;;;5018553;28;20196;-87
2023/04/06 00:50:02;;;;;;;5.77;5.30;;;4.50;63.90;;;;;;5044148;28;20177;-87
2023/04/06 00:52:28;;;;;;;10.03;5.13;;;4.60;64.20;;;;;;5048060;28;20176;-86
2023/04/06 00:54:53;;;;;;;6.27;5.67;;;4.40;64.40;;;;;;5058633;28;20172;-88
2023/04/06 00:57:19;;;;;;;5.70;5.10;;;4.20;66.10;;;;;;5076948;28;20226;-88
2023/04/06 00:59:45;;;;;;;7.40;5.37;;;4.10;66.90;;;;;;5077612;28;20212;-87
2023/04/06 01:02:11;;;;;;;6.10;5.50;;;4.20;66.60;;;;;;5075041;28;20192;-87
2023/04/06 01:04:37;;;;;;;6.17;5.57;;;4.30;66.00;;;;;;5044940;28;20276;-83
2023/04/06 01:07:03;;;;;;;5.70;4.83;;;4.30;66.10;;;;;;5060728;28;20191;-87
2023/04/06 01:09:29;;;;;;;7.00;5.23;;;4.40;65.40;;;;;;5060103;28;20187;-88
2023/04/06 01:11:56;;;;;;;6.90;5.10;;;4.60;64.30;;;;;;5054392;28;20189;-86
2023/04/06 01:14:23;;;;;;;5.23;4.80;;;4.70;63.40;;;;;;5023346;28;20185;-87
2023/04/06 01:16:49;;;;;;;5.80;5.20;;;4.70;64.00;;;;;;5004917;28;20189;-86
2023/04/06 01:19:14;;;;;;;5.57;5.00;;;4.60;63.70;;;;;;5022929;28;20225;-86
2023/04/06 01:21:41;;;;;;;5.40;4.90;;;4.50;64.30;;;;;;5027356;28;20178;-88
2023/04/06 01:24:08;;;;;;;6.40;5.20;;;4.50;64.30;;;;;;5025226;28;20182;-88
2023/04/06 01:26:35;;;;;;;5.60;5.07;;;4.60;64.50;;;;;;5023458;28;20260;-87
2023/04/06 01:29:02;;;;;;;5.40;4.70;;;4.40;64.60;;;;;;5024070;28;20217;-89
2023/04/06 01:31:28;;;;;;;5.67;4.80;;;4.50;64.50;;;;;;4989188;28;20186;-88
2023/04/06 01:33:54;;;;;;;6.43;5.00;;;4.50;64.50;;;;;;5022451;28;20244;-87
2023/04/06 01:36:20;;;;;;;6.87;5.23;;;4.50;64.20;;;;;;5035481;28;20253;-88
2023/04/06 01:38:46;;;;;;;5.67;5.17;;;4.40;64.40;;;;;;5028053;28;20213;-87
2023/04/06 01:41:12;;;;;;;4.83;4.43;;;4.50;64.00;;;;;;5024158;28;20209;-86
2023/04/06 01:43:37;;;;;;;5.87;5.30;;;4.50;64.40;;;;;;5023954;28;20644;-87
2023/04/06 01:46:03;;;;;;;4.87;4.30;;;4.40;64.70;;;;;;5039647;28;20203;-85
2023/04/06 01:48:29;;;;;;;6.17;5.57;;;4.30;65.10;;;;;;5055395;28;20208;-88
2023/04/06 01:50:55;;;;;;;4.83;4.43;;;4.30;65.00;;;;;;5063607;28;20184;-87
2023/04/06 01:53:22;;;;;;;6.33;5.47;;;4.20;65.70;;;;;;5043718;28;20201;-86
2023/04/06 01:55:48;;;;;;;6.90;4.93;;;4.20;66.00;;;;;;5024354;28;20196;-87
2023/04/06 01:58:14;;;;;;;6.07;4.37;;;4.20;65.70;;;;;;5042654;28;20232;-88
2023/04/06 02:00:40;;;;;;;6.17;5.20;;;4.00;66.80;;;;;;5043077;28;20209;-87
2023/04/06 02:03:06;;;;;;;5.43;4.93;;;4.00;67.20;;;;;;5042138;28;20212;-87
2023/04/06 02:05:37;;;;;;;5.17;4.67;;;3.90;67.50;;;;;;5021500;28;20283;-88
2023/04/06 02:08:07;;;;;;;6.20;4.93;;;3.80;67.30;;;;;;5039084;28;20271;-87
2023/04/06 02:10:34;;;;;;;5.43;4.93;;;3.80;68.30;;;;;;5021174;28;20192;-88
2023/04/06 02:13:00;;;;;;;5.30;4.80;;;3.70;68.50;;;;;;5042158;28;20207;-88
2023/04/06 02:15:26;;;;;;;5.60;5.10;;;3.70;68.70;;;;;;5042498;28;20181;-87
2023/04/06 02:17:53;;;;;;;5.70;5.17;;;3.70;68.40;;;;;;5041815;28;20209;-87
2023/04/06 02:20:18;;;;;;;5.57;5.17;;;3.70;68.70;;;;;;5044478;28;20189;-87
2023/04/06 02:22:44;;;;;;;5.77;5.10;;;3.80;68.00;;;;;;5043467;28;20713;-86
2023/04/06 02:25:10;;;;;;;5.37;4.87;;;3.80;67.80;;;;;;5031255;28;20186;-86
2023/04/06 02:27:36;;;;;;;5.27;4.77;;;3.80;67.40;;;;;;5023252;28;20193;-87
2023/04/06 02:30:05;;;;;;;7.43;5.60;;;3.80;67.10;;;;;;5022628;28;20169;-86
2023/04/06 02:32:31;;;;;;;6.07;4.87;;;3.90;66.40;;;;;;5004889;28;20201;-89
2023/04/06 02:34:57;;;;;;;6.40;5.67;;;3.90;65.00;;;;;;5022705;28;20182;-88
2023/04/06 02:37:23;;;;;;;5.10;4.63;;;3.90;66.80;;;;;;5023181;28;20281;-88
2023/04/06 02:39:49;;;;;;;5.17;4.60;;;3.80;66.90;;;;;;5023140;28;20201;-88
2023/04/06 02:42:15;;;;;;;5.20;4.80;;;3.60;67.40;;;;;;5036108;28;20289;-87
2023/04/06 02:44:42;;;;;;;5.10;4.60;;;3.60;67.50;;;;;;5055632;28;20187;-87
2023/04/06 02:47:08;;;;;;;5.23;4.83;;;3.50;68.30;;;;;;5064278;28;20177;-89
2023/04/06 02:49:33;;;;;;;5.70;5.10;;;3.40;69.20;;;;;;5051855;28;20193;-87
2023/04/06 02:51:59;;;;;;;6.90;5.30;;;3.30;69.50;;;;;;5044278;28;20212;-87
2023/04/06 02:54:25;;;;;;;5.77;4.97;;;3.30;69.50;;;;;;5044530;28;20180;-86
2023/04/06 02:56:51;;;;;;;5.70;5.20;;;3.20;69.50;;;;;;5043328;28;20639;-87
2023/04/06 02:59:16;;;;;;;5.63;5.13;;;3.30;69.10;;;;;;5043401;28;20217;-88
2023/04/06 03:01:42;;;;;;;5.73;5.10;;;3.50;67.70;;;;;;5042858;28;20173;-88
2023/04/06 03:04:08;;;;;;;5.70;5.20;;;3.50;67.60;;;;;;5042471;28;20192;-87
2023/04/06 03:06:34;;;;;;;5.97;5.20;;;3.60;66.70;;;;;;5042123;28;20177;-87
2023/04/06 03:08:59;;;;;;;7.37;5.00;;;3.50;67.10;;;;;;5042727;28;20253;-88
2023/04/06 03:11:26;;;;;;;5.53;5.00;;;3.40;67.80;;;;;;5028209;28;20207;-87
2023/04/06 03:13:52;;;;;;;5.63;5.13;;;3.40;67.10;;;;;;5041029;28;20188;-87
2023/04/06 03:16:17;;;;;;;5.57;5.00;;;3.40;67.70;;;;;;5043995;28;20184;-87
2023/04/06 03:18:44;;;;;;;6.83;5.27;;;3.40;68.10;;;;;;5044381;28;20221;-87
2023/04/06 03:21:10;;;;;;;5.37;4.70;;;3.30;68.10;;;;;;5044711;28;20277;-85
2023/04/06 03:23:36;;;;;;;6.17;5.00;;;3.20;68.50;;;;;;5057701;28;20184;-89
2023/04/06 03:26:03;;;;;;;5.40;4.40;;;3.10;69.20;;;;;;5054172;28;20169;-89
2023/04/06 03:28:29;;;;;;;5.63;5.00;;;3.10;68.70;;;;;;5054793;28;20231;-90
2023/04/06 03:30:54;;;;;;;6.10;5.37;;;3.10;69.00;;;;;;5049442;28;20169;-84
2023/04/06 03:33:20;;;;;;;5.47;4.97;;;3.10;68.90;;;;;;5035411;28;20687;-86
2023/04/06 03:35:46;;;;;;;4.83;4.43;;;3.10;68.60;;;;;;5027875;28;20174;-87
2023/04/06 03:38:11;;;;;;;5.93;4.67;;;3.20;68.80;;;;;;5025050;28;20232;-86
2023/04/06 03:40:37;;;;;;;5.60;4.73;;;3.20;68.40;;;;;;5045872;28;20213;-87
2023/04/06 03:43:04;;;;;;;5.43;4.73;;;3.20;68.70;;;;;;5038421;28;20173;-88
2023/04/06 03:45:29;;;;;;;6.30;5.30;;;3.10;69.50;;;;;;5037838;28;20192;-87
2023/04/06 03:47:55;;;;;;;5.27;4.77;;;3.00;69.60;;;;;;5040334;28;20248;-87
2023/04/06 03:50:21;;;;;;;5.93;5.33;;;3.00;69.60;;;;;;5039819;28;20181;-88
2023/04/06 03:52:47;;;;;;;5.03;4.53;;;3.00;69.10;;;;;;5041460;28;20173;-87
2023/04/06 03:55:12;;;;;;;5.50;5.00;;;3.00;70.20;;;;;;5047133;28;20181;-87
2023/04/06 03:57:38;;;;;;;5.60;4.60;;;2.90;69.50;;;;;;5053894;28;20231;-87
2023/04/06 04:00:05;;;;;;;5.90;4.63;;;2.80;69.90;;;;;;5052872;28;20651;-90
2023/04/06 04:02:31;;;;;;;5.67;4.90;;;2.80;70.10;;;;;;5053174;28;20183;-88
2023/04/06 04:04:56;;;;;;;6.77;5.03;;;2.80;70.20;;;;;;5042480;28;20210;-87
2023/04/06 04:07:22;;;;;;;4.87;4.43;;;2.70;70.80;;;;;;5040409;28;20566;-88
2023/04/06 04:09:48;;;;;;;4.93;4.43;;;2.70;70.90;;;;;;5021975;28;20626;-87
2023/04/06 04:12:15;;;;;;;4.87;4.30;;;2.70;71.10;;;;;;5038398;28;20188;-88
2023/04/06 04:14:40;;;;;;;5.13;4.60;;;2.70;71.10;;;;;;5035122;28;20178;-87
2023/04/06 04:17:06;;;;;;;5.03;4.40;;;2.70;71.20;;;;;;5039814;28;20188;-86
2023/04/06 04:19:32;;;;;;;4.90;4.40;;;2.50;72.30;;;;;;5058001;28;20335;-88
2023/04/06 04:21:57;;;;;;;4.83;4.43;;;2.50;72.10;;;;;;5040733;28;20666;-87
2023/04/06 04:24:23;;;;;;;6.27;5.60;;;2.60;72.10;;;;;;5056441;28;20176;-87
2023/04/06 04:26:49;;;;;;;7.37;5.83;;;2.50;72.60;;;;;;5039326;28;20535;-88
2023/04/06 04:29:15;;;;;;;5.53;4.60;;;2.60;71.40;;;;;;5039378;28;20196;-87
2023/04/06 04:31:41;;;;;;;6.97;4.93;;;2.50;71.00;;;;;;5038060;28;20196;-87
2023/04/06 04:34:06;;;;;;;5.67;5.10;;;2.40;72.50;;;;;;5035131;28;20201;-87
2023/04/06 04:36:32;;;;;;;6.57;5.23;;;2.40;73.00;;;;;;5054032;28;20193;-89
2023/04/06 04:39:00;;;;;;;7.47;4.60;;;2.40;72.30;;;;;;5041428;28;20192;-86
2023/04/06 04:41:26;;;;;;;5.23;4.63;;;2.40;72.10;;;;;;5041476;28;20213;-88
2023/04/06 04:43:52;;;;;;;4.90;4.50;;;2.50;71.60;;;;;;5039394;28;20185;-87
2023/04/06 04:46:17;;;;;;;5.70;5.10;;;2.50;71.50;;;;;;5042689;28;20237;-88
2023/04/06 04:48:43;;;;;;;5.63;5.13;;;2.50;71.60;;;;;;5042878;28;20785;-85
2023/04/06 04:51:09;;;;;;;7.73;4.90;;;2.40;71.80;;;;;;5046601;28;20181;-87
2023/04/06 04:53:35;;;;;;;5.83;5.23;;;2.40;72.20;;;;;;5046821;28;20192;-87
2023/04/06 04:56:01;;;;;;;5.17;4.67;;;2.50;72.30;;;;;;5045285;28;20192;-88
2023/04/06 04:58:26;;;;;;;5.13;4.50;;;2.40;72.30;;;;;;5046045;28;20197;-89
2023/04/06 05:00:52;;;;;;;5.20;4.70;;;2.40;72.20;;;;;;5047830;28;20231;-88
2023/04/06 05:03:26;;;;;;;7.03;5.73;;;2.30;72.30;;;;;;5037786;28;20188;-88
2023/04/06 05:05:52;;;;;;;7.10;5.00;;;2.30;72.00;;;;;;5034766;28;20177;-86
2023/04/06 05:08:18;;;;;;;6.20;5.50;;;2.40;71.70;;;;;;5038906;28;20322;-88
2023/04/06 05:10:44;;;;;;;6.43;5.10;;;2.40;72.00;;;;;;5038343;28;20180;-87
2023/04/06 05:13:10;;;;;;;6.23;5.67;;;2.30;72.20;;;;;;5042159;28;20223;-87
2023/04/06 05:15:40;;;;;;;5.30;4.80;;;2.40;72.00;;;;;;5016911;28;20850;-89
2023/04/06 05:18:06;;;;;;;5.83;5.27;;;2.40;71.40;;;;;;5030734;28;20224;-87
2023/04/06 05:20:32;;;;;;;7.47;5.63;;;2.40;72.30;;;;;;5030660;28;20198;-87
2023/04/06 05:22:57;;;;;;;7.13;5.70;;;2.40;71.90;;;;;;5006005;28;20193;-89
2023/04/06 05:25:23;;;;;;;6.70;5.77;;;2.50;71.10;;;;;;5023195;28;20636;-88
2023/04/06 05:27:49;;;;;;;6.53;5.43;;;2.30;72.00;;;;;;5022798;28;20217;-88
2023/04/06 05:30:15;;;;;;;8.40;5.23;;;2.40;72.20;;;;;;5008523;28;20204;-90
2023/04/06 05:32:42;;;;;;;7.53;5.27;;;2.50;71.80;;;;;;5058491;28;20204;-88
2023/04/06 05:35:08;;;;;;;7.87;5.60;;;2.50;71.80;;;;;;5038023;28;20188;-87
2023/04/06 05:37:34;;;;;;;6.17;5.33;;;2.40;72.10;;;;;;5035685;28;20220;-88
2023/04/06 05:40:00;;;;;;;6.10;5.00;;;2.50;72.10;;;;;;5029678;28;20201;-88
2023/04/06 05:42:26;;;;;;;5.93;5.30;;;2.60;71.10;;;;;;5021958;28;20184;-89
2023/04/06 05:44:52;;;;;;;7.70;6.13;;;2.60;71.30;;;;;;5021101;28;20197;-91
2023/04/06 05:47:18;;;;;;;6.93;5.87;;;2.60;71.10;;;;;;5037919;28;20241;-91
2023/04/06 05:49:44;;;;;;;8.70;5.90;;;2.60;71.00;;;;;;5051112;28;20184;-91
2023/04/06 05:52:10;;;;;;;7.20;5.97;;;2.60;70.80;;;;;;5058638;28;20252;-90
2023/04/06 05:54:38;;;;;;;7.87;7.00;;;2.60;71.10;;;;;;5050907;28;20177;-87
2023/04/06 05:57:04;;;;;;;9.03;7.30;;;2.70;71.10;;;;;;5029005;28;20267;-89
2023/04/06 05:59:31;;;;;;;9.33;7.83;;;2.80;70.00;;;;;;5034871;28;20189;-88
2023/04/06 06:01:56;;;;;;;9.93;8.20;;;2.90;69.70;;;;;;5034534;28;20663;-86
2023/04/06 06:04:22;;;;;;;9.40;8.50;;;2.90;69.60;;;;;;5031684;28;20264;-87
2023/04/06 06:06:48;;;;;;;11.70;8.33;;;3.00;69.70;;;;;;5038925;28;20262;-89
2023/04/06 06:09:14;;;;;;;10.63;8.57;;;2.80;70.90;;;;;;5021030;28;20217;-89
2023/04/06 06:11:40;;;;;;;8.80;8.00;;;2.70;72.10;;;;;;5036753;28;20185;-88
2023/04/06 06:14:06;;;;;;;8.90;8.07;;;2.70;73.50;;;;;;5033561;28;20187;-89
2023/04/06 06:16:32;;;;;;;9.33;7.63;;;2.70;72.90;;;;;;5035865;28;20279;-89
2023/04/06 06:18:57;;;;;;;9.53;8.53;;;2.70;74.10;;;;;;5037759;28;20561;-87
2023/04/06 06:21:23;;;;;;;11.30;8.50;;;2.60;74.60;;;;;;5033619;28;20193;-87
2023/04/06 06:23:50;;;;;;;9.40;7.80;;;2.60;74.90;;;;;;5039980;28;20188;-87
2023/04/06 06:26:16;;;;;;;11.17;8.60;;;2.70;75.10;;;;;;5037283;28;20169;-90
2023/04/06 06:28:41;;;;;;;8.77;7.93;;;2.70;74.60;;;;;;5041137;28;20215;-90
2023/04/06 06:31:07;;;;;;;8.40;7.60;;;2.70;75.40;;;;;;5036921;28;20224;-88
2023/04/06 06:33:33;;;;;;;10.57;7.27;;;2.70;75.40;;;;;;5019485;28;20355;-87
2023/04/06 06:35:58;;;;;;;7.70;6.97;;;2.70;76.00;;;;;;5036147;28;20201;-88
2023/04/06 06:38:24;;;;;;;8.57;7.70;;;2.70;75.60;;;;;;5039680;28;20258;-88
2023/04/06 06:40:50;;;;;;;7.73;7.00;;;2.70;75.90;;;;;;5039317;28;20192;-89
2023/04/06 06:43:16;;;;;;;8.07;7.30;;;2.80;76.00;;;;;;5035348;28;20248;-89
2023/04/06 06:45:42;;;;;;;9.67;8.77;;;2.90;75.60;;;;;;5034133;28;20463;-87
2023/04/06 06:48:08;;;;;;;9.90;9.00;;;3.00;75.40;;;;;;5036643;28;20725;-87
2023/04/06 06:50:33;;;;;;;9.50;8.50;;;3.00;75.00;;;;;;5032928;28;20646;-89
2023/04/06 06:52:59;;;;;;;8.80;7.90;;;3.00;75.20;;;;;;5029563;28;20193;-88
2023/04/06 06:55:26;;;;;;;11.57;9.70;;;3.10;74.70;;;;;;5013850;28;20196;-89
2023/04/06 06:57:52;;;;;;;10.77;8.60;;;3.20;75.30;;;;;;5032035;28;20209;-88
2023/04/06 07:00:20;;;;;;;10.20;9.20;;;3.30;74.50;;;;;;5029362;28;20205;-88
2023/04/06 07:02:47;;;;;;;10.17;9.17;;;3.30;74.40;;;;;;5017409;28;20181;-84
2023/04/06 07:05:12;;;;;;;13.57;9.20;;;3.40;75.40;;;;;;5029862;28;20212;-88
2023/04/06 07:07:38;;;;;;;9.50;8.50;;;3.80;75.10;;;;;;5022130;28;20695;-88
2023/04/06 07:10:04;;;;;;;11.57;8.60;;;4.00;73.60;;;;;;5025307;28;20232;-87
2023/04/06 07:12:30;;;;;;;10.73;7.83;;;4.10;73.70;;;;;;5025010;28;20538;-88
2023/04/06 07:14:56;;;;;;;8.77;7.87;;;4.30;70.50;;;;;;5027607;28;20729;-87
2023/04/06 07:17:21;;;;;;;8.93;8.03;;;4.30;70.50;;;;;;5026158;28;20212;-89
2023/04/06 07:19:47;;;;;;;10.23;7.77;;;4.30;70.40;;;;;;5030035;28;20226;-86
2023/04/06 07:22:13;;;;;;;8.23;7.50;;;4.40;70.10;;;;;;5034157;28;20185;-85
2023/04/06 07:24:38;;;;;;;12.13;8.80;;;4.50;69.00;;;;;;5020669;28;20181;-84
2023/04/06 07:27:04;;;;;;;9.07;8.13;;;4.50;69.50;;;;;;5040199;28;20228;-85
2023/04/06 07:29:30;;;;;;;10.90;7.93;;;4.30;71.60;;;;;;5042418;28;20656;-83
2023/04/06 07:31:56;;;;;;;9.37;8.43;;;4.40;69.60;;;;;;5038995;28;20234;-84
2023/04/06 07:34:22;;;;;;;9.53;7.77;;;4.60;70.20;;;;;;5025745;28;20272;-84
2023/04/06 07:36:47;;;;;;;8.53;7.73;;;4.70;69.40;;;;;;5039621;28;20212;-84
2023/04/06 07:39:13;;;;;;;12.30;9.17;;;4.60;69.70;;;;;;5039053;28;20237;-84
2023/04/06 07:41:40;;;;;;;9.20;8.30;;;4.50;70.60;;;;;;5040862;28;20209;-86
2023/04/06 07:44:05;;;;;;;9.13;8.23;;;4.50;72.30;;;;;;5043422;28;20206;-84
2023/04/06 07:46:31;;;;;;;11.77;9.20;;;4.80;71.40;;;;;;5038154;28;20197;-82
2023/04/06 07:48:59;;;;;;;10.60;9.50;;;4.90;71.20;;;;;;5021687;28;20265;-84
2023/04/06 07:51:26;;;;;;;8.93;8.03;;;5.20;70.00;;;;;;5041344;28;20188;-85
2023/04/06 07:53:52;;;;;;;8.67;7.80;;;5.20;70.80;;;;;;5036873;28;20189;-84
2023/04/06 07:56:18;;;;;;;9.00;7.77;;;5.40;70.60;;;;;;5038264;28;20876;-84
2023/04/06 07:58:43;;;;;;;9.53;8.33;;;5.60;67.20;;;;;;5041170;28;20204;-84
2023/04/06 08:01:09;;;;;;;9.60;8.40;;;5.70;67.70;;;;;;5039382;28;20208;-86
2023/04/06 08:03:36;;;;;;;9.20;8.30;;;5.80;67.90;;;;;;5024242;28;20184;-91
2023/04/06 08:06:02;;;;;;;10.20;9.20;;;6.00;65.70;;;;;;5024525;28;20192;-91
2023/04/06 08:08:28;;;;;;;10.27;9.27;;;6.10;64.30;;;;;;5024866;28;20239;-90
2023/04/06 08:10:54;;;;;;;8.97;8.07;;;6.10;66.40;;;;;;5023641;28;20284;-91
2023/04/06 08:13:19;;;;;;;9.20;8.30;;;6.00;65.20;;;;;;5022149;28;20189;-89
2023/04/06 08:15:45;;;;;;;10.07;8.97;;;6.10;65.20;;;;;;5026209;28;20185;-89
2023/04/06 08:18:11;;;;;;;9.70;8.80;;;6.20;65.30;;;;;;5023516;28;20216;-90
2023/04/06 08:20:37;;;;;;;11.10;8.67;;;6.40;63.20;;;;;;5031293;28;20215;-88
2023/04/06 08:23:02;;;;;;;9.07;8.27;;;6.70;61.00;;;;;;5041459;28;20184;-84
2023/04/06 08:25:28;;;;;;;12.17;10.80;;;6.90;59.50;;;;;;5043856;28;20207;-86
2023/04/06 08:27:54;;;;;;;8.00;7.13;;;7.10;58.20;;;;;;5045458;28;20220;-83
2023/04/06 08:30:19;;;;;;;8.30;7.50;;;7.20;56.80;;;;;;5045680;28;20212;-84
2023/04/06 08:32:46;;;;;;;8.33;7.53;;;7.30;56.10;;;;;;5042967;28;20612;-86
2023/04/06 08:35:12;;;;;;;8.47;7.30;;;7.30;55.70;;;;;;5040583;28;20951;-85
2023/04/06 08:37:38;;;;;;;8.80;8.00;;;7.20;56.10;;;;;;5045324;28;20188;-83
2023/04/06 08:40:07;;;;;;;9.10;8.13;;;7.50;55.40;;;;;;5044608;28;20592;-82
2023/04/06 08:42:33;;;;;;;18.37;17.07;;;7.70;55.00;;;;;;5041406;28;20185;-84
2023/04/06 08:44:59;;;;;;;9.37;7.93;;;7.90;53.90;;;;;;5020716;28;20205;-82
2023/04/06 08:47:25;;;;;;;9.17;7.53;;;8.10;52.30;;;;;;5043839;28;20197;-85
2023/04/06 08:49:53;;;;;;;7.87;7.17;;;7.90;53.00;;;;;;5042564;28;20219;-84
2023/04/06 08:52:19;;;;;;;7.90;7.10;;;8.00;52.90;;;;;;5026409;28;20304;-83
2023/04/06 08:54:45;;;;;;;8.57;7.70;;;8.30;52.30;;;;;;5040258;28;20176;-85
2023/04/06 08:57:13;;;;;;;11.37;7.53;;;8.50;50.80;;;;;;5022965;28;20322;-86
2023/04/06 08:59:39;;;;;;;8.20;7.40;;;8.50;50.90;;;;;;5042224;28;20238;-89
2023/04/06 09:02:06;;;;;;;8.50;7.67;;;8.70;50.50;;;;;;5042212;28;20161;-85
2023/04/06 09:04:34;;;;;;;8.70;7.60;;;8.90;49.90;;;;;;5038459;28;20876;-85
2023/04/06 09:07:00;;;;;;;8.63;7.83;;;9.00;50.40;;;;;;5039494;28;20188;-89
2023/04/06 09:09:26;;;;;;;11.30;9.90;;;8.90;52.40;;;;;;5041921;28;20224;-84
2023/04/06 09:11:52;;;;;;;10.37;9.23;;;9.20;51.20;;;;;;5024714;28;20243;-85
2023/04/06 09:14:34;;;;;;;11.97;8.90;;;9.50;50.40;;;;;;5039358;28;20216;-87
2023/04/06 09:17:00;;;;;;;18.73;16.97;;;9.60;50.20;;;;;;5024992;28;20197;-86
2023/04/06 09:19:25;;;;;;;9.97;9.07;;;9.80;48.70;;;;;;5044703;28;20238;-87
2023/04/06 09:22:04;;;;;;;9.27;8.43;;;9.70;50.60;;;;;;5043378;28;20244;-83
2023/04/06 09:24:42;;;;;;;10.37;9.33;;;10.00;48.80;;;;;;5037131;28;20695;-86
2023/04/06 09:27:07;;;;;;;9.03;8.23;;;10.00;48.40;;;;;;5039637;28;20203;-83
2023/04/06 09:29:34;;;;;;;9.07;8.23;;;10.40;46.90;;;;;;5025607;28;20200;-86
2023/04/06 09:32:10;;;;;;;10.13;9.10;;;10.40;46.90;;;;;;5040194;28;20180;-86
2023/04/06 09:34:37;;;;;;;9.13;8.23;;;10.70;46.10;;;;;;5035844;28;20172;-84
2023/04/06 09:37:16;;;;;;;10.40;8.83;;;10.90;43.10;;;;;;5017766;28;20185;-78
2023/04/06 09:39:41;;;;;;;11.57;10.40;;;10.90;45.70;;;;;;5041925;28;20184;-84
2023/04/06 09:42:07;;;;;;;9.73;8.73;;;11.00;45.50;;;;;;5040434;28;20207;-85
2023/04/06 09:44:33;;;;;;;17.10;15.40;;;10.90;48.30;;;;;;5036384;28;20192;-86
2023/04/06 09:46:59;;;;;;;9.87;8.90;;;10.90;45.60;;;;;;5042562;28;20227;-86
2023/04/06 09:49:28;;;;;;;9.50;8.60;;;10.70;47.20;;;;;;5042084;28;20207;-85
2023/04/06 09:51:58;;;;;;;11.23;9.37;;;10.80;45.40;;;;;;5039402;28;20661;-85
2023/04/06 09:54:28;;;;;;;9.63;8.63;;;11.30;43.90;;;;;;5039356;28;20465;-82
2023/04/06 09:57:04;;;;;;;10.20;9.30;;;11.40;41.50;;;;;;5035984;28;20200;-81
2023/04/06 09:59:39;;;;;;;9.63;8.60;;;11.40;41.80;;;;;;5039639;28;20187;-82
2023/04/06 10:02:08;;;;;;;9.90;8.90;;;11.30;41.70;;;;;;5040089;28;20176;-87
2023/04/06 10:04:41;;;;;;;10.13;9.13;;;11.70;40.90;;;;;;5041500;28;20181;-86
2023/04/06 10:07:09;;;;;;;12.77;8.73;;;11.80;40.00;;;;;;5042967;28;20193;-85
2023/04/06 10:09:37;;;;;;;8.90;8.20;;;12.00;37.60;;;;;;5040921;28;20203;-85
2023/04/06 10:12:06;;;;;;;9.70;8.63;;;12.10;36.90;;;;;;5022398;28;20201;-83
2023/04/06 10:14:36;;;;;;;9.20;8.30;;;12.00;38.70;;;;;;5043835;28;20190;-84
2023/04/06 10:17:04;;;;;;;8.80;7.90;;;12.10;36.50;;;;;;5039431;28;20238;-84
2023/04/06 10:19:51;;;;;;;9.40;8.60;;;12.10;37.10;;;;;;5039109;28;20211;-85
2023/04/06 10:22:41;;;;;;;8.53;7.80;;;12.50;36.60;;;;;;5028152;28;20473;-91
2023/04/06 10:25:08;;;;;;;9.03;8.23;;;12.60;36.30;;;;;;5013261;28;20209;-91
2023/04/06 10:27:34;;;;;;;9.67;8.53;;;12.70;35.00;;;;;;5047761;28;20199;-91
2023/04/06 10:30:05;;;;;;;9.47;8.57;;;12.80;33.60;;;;;;5052434;28;20190;-89
2023/04/06 10:32:37;;;;;;;8.73;7.80;;;12.90;33.70;;;;;;5040569;28;20202;-88
2023/04/06 10:35:21;;;;;;;9.10;8.07;;;12.90;32.70;;;;;;5024504;28;20190;-89
2023/04/06 10:38:07;;;;;;;8.93;8.10;;;12.90;33.60;;;;;;5025956;28;20432;-90
2023/04/06 10:40:37;;;;;;;8.50;7.70;;;13.20;32.90;;;;;;5026235;28;20223;-90
2023/04/06 10:43:11;;;;;;;10.23;7.33;;;13.30;32.60;;;;;;5025581;28;20184;-90
2023/04/06 10:45:37;;;;;;;8.33;7.50;;;13.10;31.60;;;;;;5026065;28;20703;-90
2023/04/06 10:48:16;;;;;;;9.93;7.93;;;13.00;31.40;;;;;;5023645;28;20219;-91
2023/04/06 10:50:50;;;;;;;8.30;7.50;;;13.60;31.00;;;;;;5023741;28;20191;-90
2023/04/06 10:53:26;;;;;;;9.33;8.03;;;13.50;32.60;;;;;;5024558;28;20266;-87
2023/04/06 10:55:56;;;;;;;8.47;7.77;;;13.90;30.00;;;;;;5026889;28;20279;-89
2023/04/06 10:58:28;;;;;;;7.87;7.07;;;14.20;29.30;;;;;;5025644;28;20217;-88
2023/04/06 11:00:55;;;;;;;7.20;6.60;;;14.50;28.40;;;;;;5025757;28;20322;-89
2023/04/06 11:03:21;;;;;;;9.53;8.57;;;14.50;28.40;;;;;;5026075;28;20186;-90
2023/04/06 11:05:51;;;;;;;8.17;7.50;;;14.80;28.10;;;;;;5028682;28;20218;-88
2023/04/06 11:08:27;;;;;;;9.03;7.60;;;15.10;28.20;;;;;;5025662;28;20253;-90
2023/04/06 11:11:08;;;;;;;7.83;7.20;;;15.30;28.20;;;;;;5026376;28;20188;-89
2023/04/06 11:13:42;;;;;;;8.43;7.63;;;15.80;27.20;;;;;;5023029;28;20173;-89
2023/04/06 11:16:14;;;;;;;9.10;8.30;;;16.30;27.10;;;;;;5026750;28;20187;-87
2023/04/06 11:19:05;;;;;;;9.23;8.53;;;15.70;28.10;;;;;;5025326;28;20291;-88
2023/04/06 11:21:47;;;;;;;8.70;7.90;;;15.70;28.20;;;;;;5026289;28;20243;-90
2023/04/06 11:24:21;;;;;;;9.27;8.37;;;15.70;28.70;;;;;;5006541;28;20229;-90
2023/04/06 11:26:48;;;;;;;8.93;8.13;;;16.10;27.60;;;;;;5024535;28;20201;-90
2023/04/06 11:29:16;;;;;;;8.47;7.67;;;16.20;27.00;;;;;;5028024;28;20279;-88
2023/04/06 11:31:45;;;;;;;8.57;7.97;;;15.90;27.60;;;;;;5028705;28;20172;-89
2023/04/06 11:34:12;;;;;;;16.47;9.20;;;15.80;26.80;;;;;;5022865;28;20287;-88
2023/04/06 11:36:42;;;;;;;9.60;8.70;;;15.80;27.10;;;;;;5026894;28;20188;-91
2023/04/06 11:39:08;;;;;;;8.60;7.87;;;15.70;27.10;;;;;;5027036;28;20256;-89
2023/04/06 11:41:35;;;;;;;8.30;7.70;;;15.80;27.50;;;;;;5026249;28;20271;-87
2023/04/06 11:44:05;;;;;;;8.30;7.57;;;15.70;25.90;;;;;;5025142;28;20193;-89
2023/04/06 11:46:31;;;;;;;7.70;7.00;;;15.70;25.70;;;;;;5026491;28;20195;-90
2023/04/06 11:49:01;;;;;;;8.10;7.50;;;15.80;26.40;;;;;;5027000;28;20527;-90
2023/04/06 11:51:27;;;;;;;9.57;8.67;;;15.40;27.00;;;;;;5023988;28;20205;-87
2023/04/06 11:53:54;;;;;;;9.13;8.33;;;15.20;27.90;;;;;;5024402;28;20187;-89
2023/04/06 11:56:32;;;;;;;9.43;8.47;;;15.50;28.00;;;;;;5008892;28;20400;-89
2023/04/06 11:59:01;;;;;;;9.13;8.40;;;15.50;27.60;;;;;;5009128;28;20927;-88
2023/04/06 12:01:27;;;;;;;8.97;8.03;;;15.30;28.00;;;;;;5025637;28;20291;-90
2023/04/06 12:03:53;;;;;;;9.20;8.33;;;15.30;28.00;;;;;;5008416;28;20247;-90
2023/04/06 12:06:19;;;;;;;9.10;8.17;;;15.30;26.60;;;;;;5027585;28;20186;-89
2023/04/06 12:08:45;;;;;;;9.17;8.30;;;15.00;27.30;;;;;;5026927;28;20208;-88
2023/04/06 12:11:11;;;;;;;9.30;8.23;;;15.40;27.20;;;;;;5028615;28;20191;-89
2023/04/06 12:13:37;;;;;;;9.63;8.77;;;15.70;28.00;;;;;;5026769;28;20188;-89
2023/04/06 12:16:03;;;;;;;9.07;8.27;;;16.10;26.00;;;;;;5025691;28;20662;-90
2023/04/06 12:18:30;;;;;;;8.87;8.07;;;16.80;25.40;;;;;;5010463;28;20991;-90
2023/04/06 12:20:55;;;;;;;13.57;10.00;;;17.20;25.30;;;;;;5027763;28;20203;-89
2023/04/06 12:23:21;;;;;;;10.87;9.87;;;17.60;24.30;;;;;;5022448;28;20271;-89
2023/04/06 12:25:47;;;;;;;10.67;9.73;;;17.30;24.60;;;;;;5024129;28;20204;-88
2023/04/06 12:28:13;;;;;;;10.67;9.67;;;17.30;24.50;;;;;;5022673;28;20202;-88
2023/04/06 12:30:40;;;;;;;10.93;10.00;;;17.80;25.40;;;;;;5019806;28;20192;-88
2023/04/06 12:33:06;;;;;;;10.27;9.20;;;17.90;24.90;;;;;;5020163;28;20861;-90
2023/04/06 12:35:37;;;;;;;11.17;10.17;;;17.90;25.40;;;;;;5024672;28;20173;-88
2023/04/06 12:38:03;;;;;;;10.30;9.43;;;17.00;25.70;;;;;;5023993;28;20845;-88
2023/04/06 12:40:29;;;;;;;10.73;9.73;;;17.40;25.70;;;;;;5023466;28;20242;-87
2023/04/06 12:42:54;;;;;;;10.93;9.93;;;17.80;25.00;;;;;;5022456;28;20181;-88
2023/04/06 12:45:20;;;;;;;9.93;9.03;;;17.40;24.90;;;;;;5007126;28;20649;-89
2023/04/06 12:47:46;;;;;;;10.23;9.43;;;17.30;23.60;;;;;;5024907;28;20202;-90
2023/04/06 12:50:11;;;;;;;10.17;9.10;;;17.40;23.00;;;;;;5007849;28;20226;-90
2023/04/06 12:52:37;;;;;;;11.50;10.70;;;17.50;23.90;;;;;;5027749;28;20184;-91